createdAt,value
2018-03-06T00:00:01.952Z,2.3
2018-03-06T00:02:04.885Z,2.4
2018-03-06T00:04:08.235Z,2.3
2018-03-06T00:07:09.257Z,2.3
2018-03-06T00:10:08.935Z,2.3
2018-03-06T00:14:13.609Z,2.3
2018-03-06T00:16:16.657Z,2.3
2018-03-06T00:21:16.471Z,2.4
2018-03-06T00:22:17.146Z,2.3
2018-03-06T00:24:17.316Z,2.3
2018-03-06T00:26:19.009Z,2.3
2018-03-06T00:28:22.748Z,2.2
2018-03-06T00:30:23.509Z,2.2
2018-03-06T00:32:27.269Z,2.3
2018-03-06T00:35:31.133Z,2.3
2018-03-06T00:37:30.980Z,2.2
2018-03-06T00:40:32.503Z,2.2
2018-03-06T00:42:34.608Z,2.1
2018-03-06T00:44:37.704Z,2.2
2018-03-06T00:46:40.161Z,2.2
2018-03-06T00:48:44.881Z,2.2
2018-03-06T00:50:44.740Z,2.1
2018-03-06T00:54:47.441Z,2.2
2018-03-06T00:56:48.899Z,2.1
2018-03-06T00:58:48.865Z,2
2018-03-06T01:00:52.225Z,2
2018-03-06T01:02:52.719Z,2.1
2018-03-06T01:04:57.061Z,2
2018-03-06T01:07:56.725Z,2
2018-03-06T01:09:56.550Z,2
2018-03-06T01:12:00.077Z,2
2018-03-06T01:14:00.558Z,2
2018-03-06T01:16:02.873Z,2
2018-03-06T01:20:05.950Z,2
2018-03-06T01:22:05.868Z,1.9
2018-03-06T01:23:08.234Z,1.8
2018-03-06T01:25:10.867Z,1.8
2018-03-06T01:27:14.999Z,1.7
2018-03-06T01:29:14.829Z,1.8
2018-03-06T01:33:20.080Z,1.9
2018-03-06T01:35:23.703Z,1.9
2018-03-06T01:38:23.536Z,1.9
2018-03-06T01:43:27.881Z,1.9
2018-03-06T01:45:31.502Z,1.8
2018-03-06T01:47:32.768Z,1.9
2018-03-06T01:50:38.144Z,1.9
2018-03-06T01:52:43.935Z,1.9
2018-03-06T01:53:47.616Z,1.9
2018-03-06T01:55:49.866Z,2
2018-03-06T01:59:50.014Z,2
2018-03-06T02:01:51.630Z,1.9
2018-03-06T02:04:55.950Z,2
2018-03-06T02:06:59.015Z,1.8
2018-03-06T02:09:00.641Z,1.9
2018-03-06T02:11:01.407Z,1.8
2018-03-06T02:13:03.141Z,1.8
2018-03-06T02:16:07.834Z,1.8
2018-03-06T02:18:11.291Z,1.8
2018-03-06T02:20:11.304Z,1.7
2018-03-06T02:22:15.416Z,1.7
2018-03-06T02:25:20.743Z,1.8
2018-03-06T02:27:24.333Z,1.7
2018-03-06T02:29:25.105Z,1.8
2018-03-06T02:31:29.297Z,1.6
2018-03-06T02:33:30.747Z,1.7
2018-03-06T02:34:34.327Z,1.7
2018-03-06T02:38:37.385Z,1.8
2018-03-06T02:40:38.382Z,1.7
2018-03-06T02:42:38.488Z,1.7
2018-03-06T02:44:40.149Z,1.7
2018-03-06T02:48:45.005Z,1.8
2018-03-06T02:51:47.711Z,1.8
2018-03-06T02:53:51.168Z,1.8
2018-03-06T02:54:55.386Z,1.7
2018-03-06T02:56:58.690Z,1.8
2018-03-06T02:58:58.551Z,1.7
2018-03-06T03:01:02.167Z,1.7
2018-03-06T03:04:03.841Z,1.8
2018-03-06T03:05:09.118Z,1.7
2018-03-06T03:07:08.970Z,1.7
2018-03-06T03:09:12.605Z,1.7
2018-03-06T03:11:12.610Z,1.7
2018-03-06T03:13:14.603Z,1.7
2018-03-06T03:15:15.347Z,1.7
2018-03-06T03:17:18.027Z,1.7
2018-03-06T03:19:19.429Z,1.7
2018-03-06T03:22:21.758Z,1.7
2018-03-06T03:24:25.011Z,1.8
2018-03-06T03:25:25.563Z,1.7
2018-03-06T03:27:27.222Z,1.8
2018-03-06T03:29:30.267Z,1.7
2018-03-06T03:32:35.611Z,1.8
2018-03-06T03:37:40.501Z,1.8
2018-03-06T03:39:43.513Z,1.8
2018-03-06T03:41:45.935Z,1.8
2018-03-06T03:43:47.533Z,1.8
2018-03-06T03:45:52.495Z,1.8
2018-03-06T03:47:52.296Z,1.8
2018-03-06T03:49:52.304Z,1.8
2018-03-06T03:51:55.454Z,1.8
2018-03-06T03:53:57.305Z,1.8
2018-03-06T03:56:01.346Z,1.8
2018-03-06T03:58:02.272Z,1.8
2018-03-06T04:02:04.906Z,1.8
2018-03-06T04:05:04.635Z,1.8
2018-03-06T04:06:08.696Z,1.7
2018-03-06T04:08:12.041Z,1.7
2018-03-06T04:12:15.137Z,1.7
2018-03-06T04:16:22.174Z,1.7
2018-03-06T04:19:21.904Z,1.7
2018-03-06T04:21:23.414Z,1.6
2018-03-06T04:23:26.287Z,1.6
2018-03-06T04:25:29.590Z,1.6
2018-03-06T04:29:33.504Z,1.7
2018-03-06T04:31:33.555Z,1.7
2018-03-06T04:33:36.802Z,1.6
2018-03-06T04:35:38.334Z,1.6
2018-03-06T04:37:43.256Z,1.5
2018-03-06T04:39:43.101Z,1.5
2018-03-06T04:41:42.913Z,1.5
2018-03-06T04:43:46.430Z,1.6
2018-03-06T04:47:50.191Z,1.6
2018-03-06T04:50:53.143Z,1.7
2018-03-06T04:52:53.067Z,1.7
2018-03-06T04:54:56.279Z,1.7
2018-03-06T04:59:02.765Z,1.8
2018-03-06T05:01:02.724Z,1.7
2018-03-06T05:03:06.883Z,1.7
2018-03-06T05:06:08.124Z,1.7
2018-03-06T05:09:12.888Z,1.7
2018-03-06T05:11:15.495Z,1.6
2018-03-06T05:13:15.393Z,1.6
2018-03-06T05:15:15.335Z,1.7
2018-03-06T05:17:19.792Z,1.6
2018-03-06T05:19:19.602Z,1.4
2018-03-06T05:21:22.750Z,1.5
2018-03-06T05:23:22.541Z,1.6
2018-03-06T05:25:25.830Z,1.6
2018-03-06T05:27:26.588Z,1.6
2018-03-06T05:30:28.968Z,1.5
2018-03-06T05:32:30.581Z,1.5
2018-03-06T05:34:33.526Z,1.4
2018-03-06T05:37:36.850Z,1.4
2018-03-06T05:41:39.059Z,1.5
2018-03-06T05:43:38.860Z,1.4
2018-03-06T05:45:42.199Z,1.4
2018-03-06T05:48:47.292Z,1.4
2018-03-06T05:50:51.120Z,1.4
2018-03-06T05:52:52.787Z,1.5
2018-03-06T05:54:55.684Z,1.4
2018-03-06T05:56:57.236Z,1.3
2018-03-06T05:58:01.127Z,1.3
2018-03-06T06:01:02.411Z,1.4
2018-03-06T06:03:05.464Z,1.3
2018-03-06T06:05:06.064Z,1.3
2018-03-06T06:07:06.363Z,1.3
2018-03-06T06:08:06.957Z,1.3
2018-03-06T06:10:08.978Z,1.3
2018-03-06T06:12:11.421Z,1.2
2018-03-06T06:14:12.609Z,1.2
2018-03-06T06:18:12.625Z,1.3
2018-03-06T06:21:12.250Z,1.3
2018-03-06T06:24:11.833Z,1.3
2018-03-06T06:26:11.494Z,1.2
2018-03-06T06:29:11.679Z,1.2
2018-03-06T06:31:11.288Z,1.2
2018-03-06T06:39:10.319Z,1.4
2018-03-06T06:41:10.105Z,1.3
2018-03-06T06:47:09.438Z,1.4
2018-03-06T06:48:09.734Z,1.4
2018-03-06T06:50:09.364Z,1.4
2018-03-06T06:52:09.230Z,1.3
2018-03-06T06:57:08.132Z,1.5
2018-03-06T06:58:08.717Z,1.5
2018-03-06T07:00:08.359Z,1.5
2018-03-06T07:03:10.973Z,1.7
2018-03-06T07:05:10.603Z,1.6
2018-03-06T07:07:10.233Z,1.6
2018-03-06T07:09:10.281Z,1.6
2018-03-06T07:12:12.600Z,1.6
2018-03-06T07:15:12.237Z,1.7
2018-03-06T07:20:11.937Z,1.8
2018-03-06T07:22:11.738Z,1.9
2018-03-06T07:25:11.167Z,2
2018-03-06T07:27:10.804Z,2
2018-03-06T07:28:11.108Z,2
2018-03-06T07:33:10.244Z,2
2018-03-06T07:36:09.635Z,2.1
2018-03-06T07:38:10.008Z,2.1
2018-03-06T07:40:09.867Z,2.3
2018-03-06T07:42:10.517Z,2.3
2018-03-06T07:44:10.396Z,2.3
2018-03-06T07:46:10.046Z,2.4
2018-03-06T07:48:10.086Z,2.3
2018-03-06T07:50:10.738Z,2.4
2018-03-06T07:52:10.553Z,2.3
2018-03-06T07:54:10.469Z,2.4
2018-03-06T07:57:10.593Z,2.6
2018-03-06T07:58:10.998Z,2.7
2018-03-06T08:00:10.658Z,2.7
2018-03-06T08:02:10.316Z,2.7
2018-03-06T08:04:10.180Z,2.6
2018-03-06T08:06:09.835Z,2.7
2018-03-06T08:10:09.378Z,2.7
2018-03-06T08:14:08.504Z,3
2018-03-06T08:18:08.077Z,3
2018-03-06T08:20:07.712Z,2.9
2018-03-06T08:23:07.174Z,3
2018-03-06T08:25:07.470Z,2.9
2018-03-06T08:27:07.118Z,3
2018-03-06T08:30:07.395Z,3.1
2018-03-06T08:33:06.822Z,3.2
2018-03-06T08:35:06.749Z,3.4
2018-03-06T08:38:06.615Z,3.5
2018-03-06T08:43:05.768Z,3.6
2018-03-06T08:45:05.702Z,3.6
2018-03-06T08:47:05.328Z,3.7
2018-03-06T08:50:05.316Z,3.9
2018-03-06T08:52:04.982Z,3.9
2018-03-06T08:54:04.601Z,3.8
2018-03-06T08:58:04.456Z,3.9
2018-03-06T09:00:06.756Z,3.9
2018-03-06T09:02:06.412Z,3.9
2018-03-06T09:06:05.565Z,4
2018-03-06T09:08:05.627Z,4.1
2018-03-06T09:10:05.348Z,4.1
2018-03-06T09:12:05.025Z,4.1
2018-03-06T09:14:04.665Z,4.1
2018-03-06T09:17:05.084Z,4.2
2018-03-06T09:18:05.384Z,4.1
2018-03-06T09:20:05.249Z,4.1
2018-03-06T09:22:04.934Z,4.1
2018-03-06T09:25:04.333Z,4.2
2018-03-06T09:28:04.445Z,4.3
2018-03-06T09:30:04.100Z,4.3
2018-03-06T09:33:03.479Z,4.5
2018-03-06T09:39:02.735Z,4.6
2018-03-06T09:44:01.708Z,4.7
2018-03-06T09:46:01.575Z,4.5
2018-03-06T09:48:02.033Z,4.7
2018-03-06T09:51:01.515Z,4.7
2018-03-06T09:53:01.171Z,4.8
2018-03-06T09:55:01.133Z,4.9
2018-03-06T09:57:00.779Z,4.8
2018-03-06T09:58:01.166Z,4.8
2018-03-06T10:02:00.379Z,5
2018-03-06T10:06:59.489Z,5
2018-03-06T10:08:00.094Z,5.1
2018-03-06T10:09:59.743Z,5.1
2018-03-06T10:11:59.430Z,5.1
2018-03-06T10:15:58.618Z,5.2
2018-03-06T10:17:58.857Z,5.3
2018-03-06T10:18:58.801Z,5.2
2018-03-06T10:20:58.446Z,5.2
2018-03-06T10:22:58.122Z,5.2
2018-03-06T10:24:57.776Z,5.3
2018-03-06T10:26:57.416Z,5.3
2018-03-06T10:27:57.731Z,5.2
2018-03-06T10:29:57.370Z,5.2
2018-03-06T10:31:57.057Z,5.2
2018-03-06T10:34:56.573Z,5.3
2018-03-06T10:36:56.182Z,5.4
2018-03-06T10:37:56.469Z,5.4
2018-03-06T10:39:56.091Z,5.4
2018-03-06T10:42:55.511Z,5.7
2018-03-06T10:44:55.241Z,5.7
2018-03-06T10:46:54.883Z,5.7
2018-03-06T10:48:54.982Z,5.8
2018-03-06T10:50:54.627Z,5.8
2018-03-06T10:52:54.270Z,5.9
2018-03-06T10:54:53.928Z,5.9
2018-03-06T10:57:53.734Z,5.9
2018-03-06T10:59:53.377Z,5.9
2018-03-06T11:01:53.022Z,5.9
2018-03-06T11:04:52.458Z,6
2018-03-06T11:06:52.098Z,5.9
2018-03-06T11:07:52.432Z,5.8
2018-03-06T11:09:52.093Z,5.9
2018-03-06T11:11:51.737Z,6
2018-03-06T11:13:52.380Z,6
2018-03-06T11:15:52.041Z,5.9
2018-03-06T11:17:52.087Z,6
2018-03-06T11:19:51.804Z,6.1
2018-03-06T11:21:51.434Z,6.2
2018-03-06T11:23:51.299Z,6.4
2018-03-06T11:25:50.991Z,6.4
2018-03-06T11:27:53.980Z,6.4
2018-03-06T11:29:53.674Z,6.5
2018-03-06T11:31:53.528Z,6.6
2018-03-06T11:33:53.173Z,6.5
2018-03-06T11:35:52.837Z,6.6
2018-03-06T11:37:52.872Z,6.8
2018-03-06T11:39:52.534Z,6.8
2018-03-06T11:41:53.231Z,6.8
2018-03-06T11:45:52.363Z,6.9
2018-03-06T11:47:52.665Z,7
2018-03-06T11:49:52.313Z,7.1
2018-03-06T11:55:51.173Z,7.3
2018-03-06T11:57:51.476Z,7.4
2018-03-06T12:01:50.586Z,7.3
2018-03-06T12:03:50.288Z,7.3
2018-03-06T12:05:49.984Z,7.2
2018-03-06T12:08:49.819Z,7.4
2018-03-06T12:10:50.122Z,7.5
2018-03-06T12:12:49.773Z,7.5
2018-03-06T12:14:49.642Z,7.6
2018-03-06T12:16:49.268Z,7.6
2018-03-06T12:17:49.627Z,7.6
2018-03-06T12:19:49.285Z,7.6
2018-03-06T12:21:48.909Z,7.6
2018-03-06T12:24:48.303Z,7.4
2018-03-06T12:25:48.216Z,7.4
2018-03-06T12:27:48.249Z,7.5
2018-03-06T12:29:47.913Z,7.4
2018-03-06T12:31:47.573Z,7.5
2018-03-06T12:33:47.228Z,7.6
2018-03-06T12:35:47.096Z,7.7
2018-03-06T12:37:47.288Z,7.7
2018-03-06T12:40:46.643Z,7.8
2018-03-06T12:44:45.797Z,7.7
2018-03-06T12:46:45.466Z,7.6
2018-03-06T12:47:45.739Z,7.6
2018-03-06T12:49:45.384Z,7.5
2018-03-06T12:51:48.256Z,7.6
2018-03-06T12:53:47.878Z,7.7
2018-03-06T12:56:47.779Z,7.7
2018-03-06T12:57:48.733Z,7.6
2018-03-06T12:59:48.379Z,7.7
2018-03-06T13:01:48.019Z,7.8
2018-03-06T13:03:47.679Z,7.8
2018-03-06T13:05:47.388Z,7.7
2018-03-06T13:07:47.466Z,7.7
2018-03-06T13:11:46.823Z,7.8
2018-03-06T13:13:46.490Z,7.7
2018-03-06T13:15:46.120Z,7.7
2018-03-06T13:18:45.943Z,7.6
2018-03-06T13:20:45.645Z,7.5
2018-03-06T13:22:45.297Z,7.4
2018-03-06T13:24:44.940Z,7.5
2018-03-06T13:26:44.579Z,7.3
2018-03-06T13:27:45.888Z,7.2
2018-03-06T13:29:45.786Z,7.2
2018-03-06T13:35:44.441Z,7.3
2018-03-06T13:38:47.100Z,7.1
2018-03-06T13:40:47.130Z,6.7
2018-03-06T13:42:46.997Z,6.9
2018-03-06T13:47:47.012Z,7.2
2018-03-06T13:49:46.639Z,7.2
2018-03-06T13:51:46.306Z,7.1
2018-03-06T13:53:45.953Z,7
2018-03-06T13:55:45.658Z,6.9
2018-03-06T13:57:45.714Z,7
2018-03-06T13:59:45.481Z,7
2018-03-06T14:01:45.273Z,7
2018-03-06T14:05:44.659Z,7
2018-03-06T14:07:44.791Z,7
2018-03-06T14:09:44.478Z,7.1
2018-03-06T14:11:45.682Z,6.9
2018-03-06T14:13:45.309Z,7
2018-03-06T14:15:44.938Z,7
2018-03-06T14:17:44.997Z,6.9
2018-03-06T14:20:44.392Z,6.8
2018-03-06T14:22:44.064Z,6.8
2018-03-06T14:24:43.783Z,6.7
2018-03-06T14:26:43.425Z,6.6
2018-03-06T14:27:43.774Z,6.6
2018-03-06T14:31:43.875Z,6.7
2018-03-06T14:33:43.554Z,6.7
2018-03-06T14:35:43.205Z,6.8
2018-03-06T14:37:43.317Z,6.7
2018-03-06T14:39:43.208Z,6.7
2018-03-06T14:41:42.886Z,6.7
2018-03-06T14:43:42.584Z,6.7
2018-03-06T14:45:42.240Z,6.7
2018-03-06T14:47:42.287Z,6.8
2018-03-06T14:49:41.947Z,6.9
2018-03-06T14:51:41.619Z,6.9
2018-03-06T14:54:41.024Z,6.9
2018-03-06T14:56:40.708Z,6.9
2018-03-06T14:57:41.004Z,6.8
2018-03-06T14:59:40.665Z,6.8
2018-03-06T15:01:40.325Z,6.7
2018-03-06T15:03:39.982Z,6.7
2018-03-06T15:05:39.599Z,6.7
2018-03-06T15:07:39.662Z,6.7
2018-03-06T15:09:39.301Z,6.8
2018-03-06T15:11:39.641Z,6.8
2018-03-06T15:13:39.290Z,6.8
2018-03-06T15:15:39.173Z,6.8
2018-03-06T15:17:39.273Z,6.8
2018-03-06T15:21:38.385Z,6.9
2018-03-06T15:23:38.049Z,6.8
2018-03-06T15:25:37.702Z,6.8
2018-03-06T15:27:38.007Z,6.8
2018-03-06T15:31:37.359Z,6.9
2018-03-06T15:34:36.800Z,6.8
2018-03-06T15:36:36.697Z,6.7
2018-03-06T15:38:36.746Z,6.7
2018-03-06T15:39:36.661Z,6.7
2018-03-06T15:40:36.553Z,6.7
2018-03-06T15:42:36.205Z,6.6
2018-03-06T15:44:35.871Z,6.6
2018-03-06T15:46:35.504Z,6.5
2018-03-06T15:47:36.018Z,6.4
2018-03-06T15:50:35.451Z,6.5
2018-03-06T15:52:35.329Z,6.6
2018-03-06T15:56:34.800Z,6.5
2018-03-06T15:57:35.116Z,6.5
2018-03-06T16:00:37.140Z,6.5
2018-03-06T16:04:36.965Z,6.5
2018-03-06T16:06:36.595Z,6.5
2018-03-06T16:07:36.911Z,6.5
2018-03-06T16:09:36.771Z,6.5
2018-03-06T16:13:35.896Z,6.5
2018-03-06T16:16:35.320Z,6.5
2018-03-06T16:20:36.361Z,6.5
2018-03-06T16:25:35.888Z,6.4
2018-03-06T16:29:35.682Z,6.5
2018-03-06T16:31:37.916Z,6.4
2018-03-06T16:34:38.438Z,6.4
2018-03-06T16:36:38.458Z,6.4
2018-03-06T16:37:38.749Z,6.3
2018-03-06T16:42:37.649Z,6.4
2018-03-06T16:44:37.294Z,6.4
2018-03-06T16:46:36.967Z,6.4
2018-03-06T16:47:37.302Z,6.4
2018-03-06T16:49:36.935Z,6.3
2018-03-06T16:51:36.561Z,6.3
2018-03-06T16:53:36.217Z,6.3
2018-03-06T16:55:35.859Z,6.1
2018-03-06T16:57:35.960Z,6.1
2018-03-06T16:59:35.604Z,6
2018-03-06T17:01:35.262Z,5.9
2018-03-06T17:04:34.672Z,5.8
2018-03-06T17:06:34.309Z,5.8
2018-03-06T17:09:34.089Z,5.7
2018-03-06T17:11:33.739Z,5.7
2018-03-06T17:13:33.421Z,5.7
2018-03-06T17:15:33.177Z,5.8
2018-03-06T17:17:33.215Z,5.8
2018-03-06T17:19:32.935Z,5.8
2018-03-06T17:21:32.573Z,5.8
2018-03-06T17:23:32.251Z,5.8
2018-03-06T17:25:31.940Z,5.7
2018-03-06T17:28:31.787Z,5.8
2018-03-06T17:31:31.206Z,5.8
2018-03-06T17:33:30.870Z,5.7
2018-03-06T17:37:30.486Z,5.7
2018-03-06T17:39:30.183Z,5.7
2018-03-06T17:41:29.851Z,5.7
2018-03-06T17:43:29.497Z,5.7
2018-03-06T17:45:29.355Z,5.7
2018-03-06T17:47:29.502Z,5.6
2018-03-06T17:49:29.151Z,5.7
2018-03-06T17:52:28.640Z,5.7
2018-03-06T17:54:28.299Z,5.6
2018-03-06T18:01:27.431Z,5.7
2018-03-06T18:03:27.100Z,5.7
2018-03-06T18:05:26.759Z,5.7
2018-03-06T18:07:26.815Z,5.7
2018-03-06T18:11:26.001Z,5.7
2018-03-06T18:13:25.717Z,5.7
2018-03-06T18:15:25.397Z,5.7
2018-03-06T18:17:25.480Z,5.7
2018-03-06T18:19:25.151Z,5.7
2018-03-06T18:22:24.580Z,5.7
2018-03-06T18:25:24.007Z,5.6
2018-03-06T18:27:24.049Z,5.6
2018-03-06T18:30:23.435Z,5.6
2018-03-06T18:32:23.084Z,5.5
2018-03-06T18:37:22.958Z,5.5
2018-03-06T18:39:22.708Z,5.5
2018-03-06T18:41:22.367Z,5.5
2018-03-06T18:45:21.560Z,5.5
2018-03-06T18:47:21.679Z,5.5
2018-03-06T18:49:21.375Z,5.5
2018-03-06T18:51:21.022Z,5.4
2018-03-06T18:54:20.481Z,5.5
2018-03-06T18:56:20.210Z,5.4
2018-03-06T18:57:20.507Z,5.4
2018-03-06T19:00:20.000Z,5.5
2018-03-06T19:02:19.655Z,5.5
2018-03-06T19:04:19.323Z,5.4
2018-03-06T19:06:18.979Z,5.4
2018-03-06T19:07:19.342Z,5.4
2018-03-06T19:09:19.001Z,5.4
2018-03-06T19:12:18.637Z,5.3
2018-03-06T19:14:18.262Z,5.4
2018-03-06T19:16:17.890Z,5.3
2018-03-06T19:17:18.237Z,5.3
2018-03-06T19:19:17.892Z,5.3
2018-03-06T19:21:17.545Z,5.3
2018-03-06T19:24:16.957Z,5.3
2018-03-06T19:26:19.422Z,5.2
2018-03-06T19:29:19.203Z,5.3
2018-03-06T19:32:18.562Z,5.2
2018-03-06T19:34:18.222Z,5.2
2018-03-06T19:36:17.871Z,5.2
2018-03-06T19:37:18.198Z,5.2
2018-03-06T19:42:17.187Z,5.2
2018-03-06T19:46:16.686Z,5.1
2018-03-06T19:47:16.984Z,5.1
2018-03-06T19:49:16.636Z,5.1
2018-03-06T19:55:15.888Z,5.1
2018-03-06T19:58:16.103Z,5.1
2018-03-06T20:03:18.251Z,5.1
2018-03-06T20:05:27.685Z,4.9
2018-03-06T20:07:27.779Z,4.9
2018-03-06T20:09:30.378Z,4.9
2018-03-06T20:12:30.804Z,4.9
2018-03-06T20:14:30.459Z,4.9
2018-03-06T20:16:30.106Z,4.9
2018-03-06T20:17:30.835Z,4.9
2018-03-06T20:19:30.468Z,5
2018-03-06T20:22:29.931Z,5
2018-03-06T20:24:29.642Z,5
2018-03-06T20:26:29.289Z,5
2018-03-06T20:27:29.635Z,5
2018-03-06T20:31:28.797Z,5
2018-03-06T20:33:28.468Z,5
2018-03-06T20:36:27.867Z,5
2018-03-06T20:38:27.932Z,5
2018-03-06T20:40:27.590Z,4.9
2018-03-06T20:42:27.265Z,5
2018-03-06T20:44:26.920Z,5
2018-03-06T20:46:26.597Z,4.9
2018-03-06T20:47:26.934Z,4.9
2018-03-06T20:49:26.608Z,4.9
2018-03-06T20:54:25.572Z,4.9
2018-03-06T20:56:25.394Z,4.9
2018-03-06T20:59:25.343Z,4.9
2018-03-06T21:01:25.020Z,4.9
2018-03-06T21:04:24.427Z,4.8
2018-03-06T21:06:24.083Z,4.8
2018-03-06T21:10:23.660Z,4.9
2018-03-06T21:13:23.070Z,4.8
2018-03-06T21:15:22.735Z,4.7
2018-03-06T21:18:22.531Z,4.8
2018-03-06T21:20:22.598Z,4.7
2018-03-06T21:22:22.236Z,4.7
2018-03-06T21:24:21.875Z,4.7
2018-03-06T21:26:21.529Z,4.7
2018-03-06T21:30:21.079Z,4.8
2018-03-06T21:33:20.505Z,4.7
2018-03-06T21:39:19.554Z,4.7
2018-03-06T21:41:19.203Z,4.7
2018-03-06T21:44:18.651Z,4.7
2018-03-06T21:46:18.460Z,4.7
2018-03-06T21:47:18.912Z,4.6
2018-03-06T21:49:18.573Z,4.6
2018-03-06T21:54:17.544Z,4.6
2018-03-06T21:56:17.196Z,4.6
2018-03-06T22:00:16.816Z,4.6
2018-03-06T22:02:16.463Z,4.5
2018-03-06T22:04:16.115Z,4.5
2018-03-06T22:07:15.937Z,4.5
2018-03-06T22:09:15.625Z,4.5
2018-03-06T22:12:15.523Z,4.4
2018-03-06T22:15:14.917Z,4.5
2018-03-06T22:17:14.983Z,4.5
2018-03-06T22:20:14.374Z,4.5
2018-03-06T22:22:14.034Z,4.4
2018-03-06T22:24:13.682Z,4.4
2018-03-06T22:26:13.320Z,4.3
2018-03-06T22:35:11.591Z,4.4
2018-03-06T22:37:11.672Z,4.3
2018-03-06T22:39:11.313Z,4.3
2018-03-06T22:41:10.994Z,4.3
2018-03-06T22:43:10.632Z,4.3
2018-03-06T22:46:10.004Z,4.3
2018-03-06T22:47:10.304Z,4.2
2018-03-06T22:52:09.211Z,4.3
2018-03-06T22:54:08.845Z,4.2
2018-03-06T22:56:08.463Z,4.2
2018-03-06T22:58:08.534Z,4.2
2018-03-06T23:00:08.201Z,4.2
2018-03-06T23:06:06.827Z,4.3
2018-03-06T23:07:07.140Z,4.2
2018-03-06T23:09:06.788Z,4.2
2018-03-06T23:13:06.084Z,4.2
2018-03-06T23:17:05.619Z,4.3
2018-03-06T23:19:05.266Z,4.3
2018-03-06T23:21:04.929Z,4.2
2018-03-06T23:23:04.613Z,4.2
2018-03-06T23:25:04.271Z,4.2
2018-03-06T23:27:04.371Z,4.2
2018-03-06T23:29:04.043Z,4.2
2018-03-06T23:35:02.839Z,4.1
2018-03-06T23:37:02.923Z,4.1
2018-03-06T23:39:02.579Z,4.1
2018-03-06T23:44:01.482Z,4.1
2018-03-06T23:47:01.240Z,4
2018-03-06T23:49:00.883Z,4
2018-03-06T23:51:00.543Z,3.9
2018-03-06T23:53:00.190Z,3.8
2018-03-06T23:54:59.815Z,3.9
2018-03-06T23:57:59.707Z,3.9
2018-03-06T23:59:59.372Z,3.9
